sensor_id;sensor_type;location;lat;lon;timestamp;P1;durP1;ratioP1;P2;durP2;ratioP2
8247;SDS011;4164;49.844;8.830;2022-11-04T00:01:18;7.87;;;4.40;;
8247;SDS011;4164;49.844;8.830;2022-11-04T00:03:44;5.93;;;4.13;;
8247;SDS011;4164;49.844;8.830;2022-11-04T00:06:10;4.90;;;4.00;;
8247;SDS011;4164;49.844;8.830;2022-11-04T00:08:36;6.70;;;4.20;;
8247;SDS011;4164;49.844;8.830;2022-11-04T00:11:01;5.37;;;4.23;;
8247;SDS011;4164;49.844;8.830;2022-11-04T00:13:46;7.07;;;4.60;;
8247;SDS011;4164;49.844;8.830;2022-11-04T00:16:12;8.87;;;4.43;;
8247;SDS011;4164;49.844;8.830;2022-11-04T00:18:56;5.67;;;4.13;;
8247;SDS011;4164;49.844;8.830;2022-11-04T00:21:23;4.97;;;3.97;;
8247;SDS011;4164;49.844;8.830;2022-11-04T00:24:08;6.80;;;4.70;;
8247;SDS011;4164;49.844;8.830;2022-11-04T00:26:54;4.30;;;3.70;;
8247;SDS011;4164;49.844;8.830;2022-11-04T00:29:38;5.63;;;3.47;;
8247;SDS011;4164;49.844;8.830;2022-11-04T00:32:03;5.13;;;4.00;;
8247;SDS011;4164;49.844;8.830;2022-11-04T00:34:47;5.07;;;4.10;;
8247;SDS011;4164;49.844;8.830;2022-11-04T00:37:13;5.80;;;4.33;;
8247;SDS011;4164;49.844;8.830;2022-11-04T00:39:39;5.63;;;4.20;;
8247;SDS011;4164;49.844;8.830;2022-11-04T00:42:04;4.40;;;4.00;;
8247;SDS011;4164;49.844;8.830;2022-11-04T00:44:30;6.07;;;4.40;;
8247;SDS011;4164;49.844;8.830;2022-11-04T00:46:55;6.57;;;4.67;;
8247;SDS011;4164;49.844;8.830;2022-11-04T00:49:21;5.50;;;4.10;;
8247;SDS011;4164;49.844;8.830;2022-11-04T00:51:46;4.57;;;4.17;;
8247;SDS011;4164;49.844;8.830;2022-11-04T00:54:12;4.67;;;3.70;;
8247;SDS011;4164;49.844;8.830;2022-11-04T00:56:38;6.70;;;3.60;;
8247;SDS011;4164;49.844;8.830;2022-11-04T00:59:04;3.67;;;3.27;;
8247;SDS011;4164;49.844;8.830;2022-11-04T01:01:30;4.30;;;2.80;;
8247;SDS011;4164;49.844;8.830;2022-11-04T01:03:56;3.83;;;2.90;;
8247;SDS011;4164;49.844;8.830;2022-11-04T01:06:22;3.50;;;2.97;;
8247;SDS011;4164;49.844;8.830;2022-11-04T01:08:56;3.80;;;3.00;;
8247;SDS011;4164;49.844;8.830;2022-11-04T01:11:23;4.47;;;2.93;;
8247;SDS011;4164;49.844;8.830;2022-11-04T01:13:50;4.93;;;2.80;;
8247;SDS011;4164;49.844;8.830;2022-11-04T01:16:16;3.67;;;3.00;;
8247;SDS011;4164;49.844;8.830;2022-11-04T01:18:42;4.03;;;3.23;;
8247;SDS011;4164;49.844;8.830;2022-11-04T01:21:09;4.77;;;3.57;;
8247;SDS011;4164;49.844;8.830;2022-11-04T01:23:36;2.50;;;2.30;;
8247;SDS011;4164;49.844;8.830;2022-11-04T01:26:06;5.27;;;2.53;;
8247;SDS011;4164;49.844;8.830;2022-11-04T01:28:45;2.43;;;2.23;;
8247;SDS011;4164;49.844;8.830;2022-11-04T01:31:12;4.43;;;2.63;;
8247;SDS011;4164;49.844;8.830;2022-11-04T01:33:49;2.73;;;2.53;;
8247;SDS011;4164;49.844;8.830;2022-11-04T01:36:16;3.13;;;2.30;;
8247;SDS011;4164;49.844;8.830;2022-11-04T01:38:42;2.30;;;2.10;;
8247;SDS011;4164;49.844;8.830;2022-11-04T01:41:09;2.67;;;2.17;;
8247;SDS011;4164;49.844;8.830;2022-11-04T01:43:51;1.70;;;1.60;;
8247;SDS011;4164;49.844;8.830;2022-11-04T01:46:25;2.00;;;1.40;;
8247;SDS011;4164;49.844;8.830;2022-11-04T01:51:52;2.30;;;1.70;;
8247;SDS011;4164;49.844;8.830;2022-11-04T01:54:23;1.83;;;1.73;;
8247;SDS011;4164;49.844;8.830;2022-11-04T01:56:49;3.77;;;1.50;;
8247;SDS011;4164;49.844;8.830;2022-11-04T01:59:18;1.50;;;1.30;;
8247;SDS011;4164;49.844;8.830;2022-11-04T02:01:48;1.60;;;1.43;;
8247;SDS011;4164;49.844;8.830;2022-11-04T02:04:14;2.97;;;1.50;;
8247;SDS011;4164;49.844;8.830;2022-11-04T02:06:49;1.30;;;1.20;;
8247;SDS011;4164;49.844;8.830;2022-11-04T02:09:18;1.97;;;1.30;;
8247;SDS011;4164;49.844;8.830;2022-11-04T02:11:45;2.93;;;1.53;;
8247;SDS011;4164;49.844;8.830;2022-11-04T02:14:29;2.70;;;1.40;;
8247;SDS011;4164;49.844;8.830;2022-11-04T02:19:58;3.03;;;1.50;;
8247;SDS011;4164;49.844;8.830;2022-11-04T02:22:39;4.40;;;1.83;;
8247;SDS011;4164;49.844;8.830;2022-11-04T02:31:31;2.30;;;1.50;;
8247;SDS011;4164;49.844;8.830;2022-11-04T02:34:23;1.67;;;1.40;;
8247;SDS011;4164;49.844;8.830;2022-11-04T02:37:01;2.47;;;1.50;;
8247;SDS011;4164;49.844;8.830;2022-11-04T02:40:20;3.20;;;1.30;;
8247;SDS011;4164;49.844;8.830;2022-11-04T02:42:41;1.70;;;1.20;;
8247;SDS011;4164;49.844;8.830;2022-11-04T02:48:19;1.07;;;0.97;;
8247;SDS011;4164;49.844;8.830;2022-11-04T02:50:53;1.27;;;1.17;;
8247;SDS011;4164;49.844;8.830;2022-11-04T02:53:28;1.20;;;1.10;;
8247;SDS011;4164;49.844;8.830;2022-11-04T02:56:22;1.53;;;1.20;;
8247;SDS011;4164;49.844;8.830;2022-11-04T02:58:54;1.33;;;1.23;;
8247;SDS011;4164;49.844;8.830;2022-11-04T03:01:24;4.53;;;1.37;;
8247;SDS011;4164;49.844;8.830;2022-11-04T03:03:55;1.63;;;1.30;;
8247;SDS011;4164;49.844;8.830;2022-11-04T03:06:29;1.43;;;0.93;;
8247;SDS011;4164;49.844;8.830;2022-11-04T03:08:57;8.20;;;1.37;;
8247;SDS011;4164;49.844;8.830;2022-11-04T03:11:25;1.73;;;1.10;;
8247;SDS011;4164;49.844;8.830;2022-11-04T03:14:05;6.93;;;1.10;;
8247;SDS011;4164;49.844;8.830;2022-11-04T03:16:37;1.03;;;0.97;;
8247;SDS011;4164;49.844;8.830;2022-11-04T03:19:22;2.40;;;1.27;;
8247;SDS011;4164;49.844;8.830;2022-11-04T03:21:54;4.87;;;1.20;;
8247;SDS011;4164;49.844;8.830;2022-11-04T03:24:24;2.33;;;1.50;;
8247;SDS011;4164;49.844;8.830;2022-11-04T03:26:54;2.50;;;1.23;;
8247;SDS011;4164;49.844;8.830;2022-11-04T03:29:38;2.87;;;1.20;;
8247;SDS011;4164;49.844;8.830;2022-11-04T03:34:40;1.30;;;1.20;;
8247;SDS011;4164;49.844;8.830;2022-11-04T03:37:06;3.13;;;1.80;;
8247;SDS011;4164;49.844;8.830;2022-11-04T03:39:32;2.93;;;1.60;;
8247;SDS011;4164;49.844;8.830;2022-11-04T03:41:59;5.93;;;1.70;;
8247;SDS011;4164;49.844;8.830;2022-11-04T03:44:43;3.83;;;1.77;;
8247;SDS011;4164;49.844;8.830;2022-11-04T03:47:22;3.87;;;1.90;;
8247;SDS011;4164;49.844;8.830;2022-11-04T03:49:50;7.67;;;1.90;;
8247;SDS011;4164;49.844;8.830;2022-11-04T03:52:19;1.50;;;1.40;;
8247;SDS011;4164;49.844;8.830;2022-11-04T03:54:45;2.93;;;1.83;;
8247;SDS011;4164;49.844;8.830;2022-11-04T03:57:58;4.73;;;2.00;;
8247;SDS011;4164;49.844;8.830;2022-11-04T04:00:16;3.87;;;1.67;;
8247;SDS011;4164;49.844;8.830;2022-11-04T04:02:54;6.43;;;1.80;;
8247;SDS011;4164;49.844;8.830;2022-11-04T04:05:25;3.30;;;1.50;;
8247;SDS011;4164;49.844;8.830;2022-11-04T04:10:52;5.20;;;2.30;;
8247;SDS011;4164;49.844;8.830;2022-11-04T04:13:44;4.40;;;1.83;;
8247;SDS011;4164;49.844;8.830;2022-11-04T04:16:17;2.10;;;1.80;;
8247;SDS011;4164;49.844;8.830;2022-11-04T04:18:58;4.33;;;1.93;;
8247;SDS011;4164;49.844;8.830;2022-11-04T04:21:40;8.50;;;1.90;;
8247;SDS011;4164;49.844;8.830;2022-11-04T04:24:18;4.40;;;1.77;;
8247;SDS011;4164;49.844;8.830;2022-11-04T04:27:07;8.70;;;1.60;;
8247;SDS011;4164;49.844;8.830;2022-11-04T04:29:52;4.20;;;1.70;;
8247;SDS011;4164;49.844;8.830;2022-11-04T04:32:19;6.73;;;1.77;;
8247;SDS011;4164;49.844;8.830;2022-11-04T04:34:48;3.40;;;1.77;;
8247;SDS011;4164;49.844;8.830;2022-11-04T04:37:15;6.57;;;1.87;;
8247;SDS011;4164;49.844;8.830;2022-11-04T04:40:03;4.07;;;1.80;;
8247;SDS011;4164;49.844;8.830;2022-11-04T04:42:50;6.40;;;1.90;;
8247;SDS011;4164;49.844;8.830;2022-11-04T04:45:35;5.20;;;2.30;;
8247;SDS011;4164;49.844;8.830;2022-11-04T04:48:04;4.87;;;1.73;;
8247;SDS011;4164;49.844;8.830;2022-11-04T04:50:33;10.20;;;2.20;;
8247;SDS011;4164;49.844;8.830;2022-11-04T04:53:01;8.97;;;1.93;;
8247;SDS011;4164;49.844;8.830;2022-11-04T04:55:28;5.73;;;1.67;;
8247;SDS011;4164;49.844;8.830;2022-11-04T04:57:55;6.03;;;1.60;;
8247;SDS011;4164;49.844;8.830;2022-11-04T05:00:21;4.43;;;1.77;;
8247;SDS011;4164;49.844;8.830;2022-11-04T05:02:47;5.27;;;1.63;;
8247;SDS011;4164;49.844;8.830;2022-11-04T05:05:13;4.43;;;1.80;;
8247;SDS011;4164;49.844;8.830;2022-11-04T05:07:39;7.83;;;1.80;;
8247;SDS011;4164;49.844;8.830;2022-11-04T05:10:06;11.20;;;2.10;;
8247;SDS011;4164;49.844;8.830;2022-11-04T05:12:36;5.47;;;1.73;;
8247;SDS011;4164;49.844;8.830;2022-11-04T05:15:22;7.13;;;1.80;;
8247;SDS011;4164;49.844;8.830;2022-11-04T05:17:52;6.03;;;1.83;;
8247;SDS011;4164;49.844;8.830;2022-11-04T05:20:22;3.67;;;1.90;;
8247;SDS011;4164;49.844;8.830;2022-11-04T05:22:48;4.80;;;1.73;;
8247;SDS011;4164;49.844;8.830;2022-11-04T05:25:14;3.20;;;1.60;;
8247;SDS011;4164;49.844;8.830;2022-11-04T05:27:39;4.50;;;1.40;;
8247;SDS011;4164;49.844;8.830;2022-11-04T05:30:05;4.90;;;1.67;;
8247;SDS011;4164;49.844;8.830;2022-11-04T05:32:31;4.23;;;1.77;;
8247;SDS011;4164;49.844;8.830;2022-11-04T05:34:57;3.77;;;1.90;;
8247;SDS011;4164;49.844;8.830;2022-11-04T05:37:23;4.13;;;1.70;;
8247;SDS011;4164;49.844;8.830;2022-11-04T05:39:49;4.33;;;1.50;;
8247;SDS011;4164;49.844;8.830;2022-11-04T05:42:14;6.50;;;1.70;;
8247;SDS011;4164;49.844;8.830;2022-11-04T05:44:40;3.93;;;1.63;;
8247;SDS011;4164;49.844;8.830;2022-11-04T05:47:05;6.23;;;1.77;;
8247;SDS011;4164;49.844;8.830;2022-11-04T05:49:31;2.30;;;1.67;;
8247;SDS011;4164;49.844;8.830;2022-11-04T05:51:57;8.43;;;1.90;;
8247;SDS011;4164;49.844;8.830;2022-11-04T05:54:23;8.30;;;1.80;;
8247;SDS011;4164;49.844;8.830;2022-11-04T05:56:48;3.47;;;2.13;;
8247;SDS011;4164;49.844;8.830;2022-11-04T05:59:14;6.50;;;1.80;;
8247;SDS011;4164;49.844;8.830;2022-11-04T06:01:40;6.77;;;1.60;;
8247;SDS011;4164;49.844;8.830;2022-11-04T06:04:08;6.73;;;2.00;;
8247;SDS011;4164;49.844;8.830;2022-11-04T06:06:38;3.93;;;1.73;;
8247;SDS011;4164;49.844;8.830;2022-11-04T06:09:04;4.97;;;2.00;;
8247;SDS011;4164;49.844;8.830;2022-11-04T06:11:30;5.13;;;1.70;;
8247;SDS011;4164;49.844;8.830;2022-11-04T06:13:56;5.40;;;2.10;;
8247;SDS011;4164;49.844;8.830;2022-11-04T06:16:22;3.57;;;1.50;;
8247;SDS011;4164;49.844;8.830;2022-11-04T06:18:48;4.00;;;1.90;;
8247;SDS011;4164;49.844;8.830;2022-11-04T06:23:40;9.07;;;2.77;;
8247;SDS011;4164;49.844;8.830;2022-11-04T06:26:06;6.13;;;1.90;;
8247;SDS011;4164;49.844;8.830;2022-11-04T06:28:32;4.93;;;1.83;;
8247;SDS011;4164;49.844;8.830;2022-11-04T06:30:59;5.73;;;1.63;;
8247;SDS011;4164;49.844;8.830;2022-11-04T06:33:26;9.23;;;2.07;;
8247;SDS011;4164;49.844;8.830;2022-11-04T06:35:55;11.77;;;2.40;;
8247;SDS011;4164;49.844;8.830;2022-11-04T06:38:22;6.13;;;2.57;;
8247;SDS011;4164;49.844;8.830;2022-11-04T06:40:48;5.10;;;2.27;;
8247;SDS011;4164;49.844;8.830;2022-11-04T06:43:13;6.33;;;2.10;;
8247;SDS011;4164;49.844;8.830;2022-11-04T06:45:39;8.67;;;1.90;;
8247;SDS011;4164;49.844;8.830;2022-11-04T06:48:04;9.70;;;2.87;;
8247;SDS011;4164;49.844;8.830;2022-11-04T06:50:30;5.17;;;2.00;;
8247;SDS011;4164;49.844;8.830;2022-11-04T06:52:56;8.87;;;2.57;;
8247;SDS011;4164;49.844;8.830;2022-11-04T06:55:21;5.67;;;2.30;;
8247;SDS011;4164;49.844;8.830;2022-11-04T06:57:47;5.07;;;2.17;;
8247;SDS011;4164;49.844;8.830;2022-11-04T07:00:13;5.70;;;2.50;;
8247;SDS011;4164;49.844;8.830;2022-11-04T07:02:38;9.27;;;2.30;;
8247;SDS011;4164;49.844;8.830;2022-11-04T07:05:04;3.53;;;1.90;;
8247;SDS011;4164;49.844;8.830;2022-11-04T07:07:31;5.10;;;2.43;;
8247;SDS011;4164;49.844;8.830;2022-11-04T07:09:56;4.93;;;3.20;;
8247;SDS011;4164;49.844;8.830;2022-11-04T07:12:22;4.40;;;2.50;;
8247;SDS011;4164;49.844;8.830;2022-11-04T07:14:48;5.63;;;2.03;;
8247;SDS011;4164;49.844;8.830;2022-11-04T07:17:15;5.67;;;2.43;;
8247;SDS011;4164;49.844;8.830;2022-11-04T07:19:40;5.97;;;2.30;;
8247;SDS011;4164;49.844;8.830;2022-11-04T07:22:06;6.30;;;2.30;;
8247;SDS011;4164;49.844;8.830;2022-11-04T07:24:32;9.30;;;2.30;;
8247;SDS011;4164;49.844;8.830;2022-11-04T07:26:58;4.00;;;2.13;;
8247;SDS011;4164;49.844;8.830;2022-11-04T07:29:23;4.87;;;2.00;;
8247;SDS011;4164;49.844;8.830;2022-11-04T07:31:49;7.17;;;2.63;;
8247;SDS011;4164;49.844;8.830;2022-11-04T07:34:15;4.43;;;1.70;;
8247;SDS011;4164;49.844;8.830;2022-11-04T07:36:40;9.33;;;2.30;;
8247;SDS011;4164;49.844;8.830;2022-11-04T07:39:06;9.23;;;2.23;;
8247;SDS011;4164;49.844;8.830;2022-11-04T07:41:31;4.57;;;1.87;;
8247;SDS011;4164;49.844;8.830;2022-11-04T07:43:57;7.53;;;1.87;;
8247;SDS011;4164;49.844;8.830;2022-11-04T07:46:24;6.63;;;1.73;;
8247;SDS011;4164;49.844;8.830;2022-11-04T07:48:50;5.03;;;2.07;;
8247;SDS011;4164;49.844;8.830;2022-11-04T07:51:17;7.67;;;1.77;;
8247;SDS011;4164;49.844;8.830;2022-11-04T07:53:44;4.73;;;1.60;;
8247;SDS011;4164;49.844;8.830;2022-11-04T07:56:10;6.80;;;1.33;;
8247;SDS011;4164;49.844;8.830;2022-11-04T07:58:37;3.80;;;1.50;;
8247;SDS011;4164;49.844;8.830;2022-11-04T08:01:04;5.23;;;1.70;;
8247;SDS011;4164;49.844;8.830;2022-11-04T08:03:32;6.00;;;1.70;;
8247;SDS011;4164;49.844;8.830;2022-11-04T08:06:02;2.67;;;1.43;;
8247;SDS011;4164;49.844;8.830;2022-11-04T08:08:29;5.57;;;1.50;;
8247;SDS011;4164;49.844;8.830;2022-11-04T08:10:56;5.50;;;1.40;;
8247;SDS011;4164;49.844;8.830;2022-11-04T08:13:27;3.83;;;1.40;;
8247;SDS011;4164;49.844;8.830;2022-11-04T08:15:54;6.40;;;2.53;;
8247;SDS011;4164;49.844;8.830;2022-11-04T08:18:20;2.73;;;1.60;;
8247;SDS011;4164;49.844;8.830;2022-11-04T08:20:47;5.40;;;1.77;;
8247;SDS011;4164;49.844;8.830;2022-11-04T08:23:14;3.17;;;2.00;;
8247;SDS011;4164;49.844;8.830;2022-11-04T08:25:40;5.33;;;1.80;;
8247;SDS011;4164;49.844;8.830;2022-11-04T08:28:06;6.63;;;1.60;;
8247;SDS011;4164;49.844;8.830;2022-11-04T08:30:31;5.50;;;1.70;;
8247;SDS011;4164;49.844;8.830;2022-11-04T08:32:57;2.23;;;1.37;;
8247;SDS011;4164;49.844;8.830;2022-11-04T08:35:23;2.80;;;1.40;;
8247;SDS011;4164;49.844;8.830;2022-11-04T08:37:49;2.77;;;1.20;;
8247;SDS011;4164;49.844;8.830;2022-11-04T08:40:15;2.70;;;1.27;;
8247;SDS011;4164;49.844;8.830;2022-11-04T08:42:41;1.63;;;1.30;;
8247;SDS011;4164;49.844;8.830;2022-11-04T08:45:06;4.30;;;1.57;;
8247;SDS011;4164;49.844;8.830;2022-11-04T08:47:32;6.00;;;1.57;;
8247;SDS011;4164;49.844;8.830;2022-11-04T08:49:58;2.53;;;1.30;;
8247;SDS011;4164;49.844;8.830;2022-11-04T08:52:23;4.33;;;1.50;;
8247;SDS011;4164;49.844;8.830;2022-11-04T08:54:52;6.30;;;1.20;;
8247;SDS011;4164;49.844;8.830;2022-11-04T08:57:18;10.80;;;1.43;;
8247;SDS011;4164;49.844;8.830;2022-11-04T08:59:43;6.20;;;1.27;;
8247;SDS011;4164;49.844;8.830;2022-11-04T09:02:11;4.77;;;1.27;;
8247;SDS011;4164;49.844;8.830;2022-11-04T09:04:39;3.43;;;1.43;;
8247;SDS011;4164;49.844;8.830;2022-11-04T09:07:05;3.20;;;1.63;;
8247;SDS011;4164;49.844;8.830;2022-11-04T09:09:31;4.13;;;1.40;;
8247;SDS011;4164;49.844;8.830;2022-11-04T09:11:56;4.80;;;1.67;;
8247;SDS011;4164;49.844;8.830;2022-11-04T09:14:22;3.80;;;1.60;;
8247;SDS011;4164;49.844;8.830;2022-11-04T09:16:47;4.87;;;1.50;;
8247;SDS011;4164;49.844;8.830;2022-11-04T09:19:13;2.73;;;1.23;;
8247;SDS011;4164;49.844;8.830;2022-11-04T09:21:39;2.97;;;1.40;;
8247;SDS011;4164;49.844;8.830;2022-11-04T09:24:05;2.80;;;1.20;;
8247;SDS011;4164;49.844;8.830;2022-11-04T09:26:32;3.27;;;1.27;;
8247;SDS011;4164;49.844;8.830;2022-11-04T09:28:58;2.67;;;1.30;;
8247;SDS011;4164;49.844;8.830;2022-11-04T09:31:24;3.80;;;1.10;;
8247;SDS011;4164;49.844;8.830;2022-11-04T09:33:52;4.63;;;1.53;;
8247;SDS011;4164;49.844;8.830;2022-11-04T09:36:19;7.00;;;1.53;;
8247;SDS011;4164;49.844;8.830;2022-11-04T09:38:45;6.87;;;2.20;;
8247;SDS011;4164;49.844;8.830;2022-11-04T09:44:22;3.97;;;1.50;;
8247;SDS011;4164;49.844;8.830;2022-11-04T09:47:12;3.73;;;1.80;;
8247;SDS011;4164;49.844;8.830;2022-11-04T09:49:38;4.20;;;1.50;;
8247;SDS011;4164;49.844;8.830;2022-11-04T09:52:17;7.23;;;1.53;;
8247;SDS011;4164;49.844;8.830;2022-11-04T09:54:49;3.40;;;1.53;;
8247;SDS011;4164;49.844;8.830;2022-11-04T09:57:20;5.33;;;1.67;;
8247;SDS011;4164;49.844;8.830;2022-11-04T09:59:45;3.17;;;1.37;;
8247;SDS011;4164;49.844;8.830;2022-11-04T10:02:22;30.07;;;16.03;;
8247;SDS011;4164;49.844;8.830;2022-11-04T10:07:25;2.83;;;1.57;;
8247;SDS011;4164;49.844;8.830;2022-11-04T10:26:44;8.97;;;2.67;;
8247;SDS011;4164;49.844;8.830;2022-11-04T10:29:32;2.90;;;1.43;;
8247;SDS011;4164;49.844;8.830;2022-11-04T10:32:00;2.17;;;1.40;;
8247;SDS011;4164;49.844;8.830;2022-11-04T10:34:34;5.60;;;1.40;;
8247;SDS011;4164;49.844;8.830;2022-11-04T10:37:04;6.10;;;1.60;;
8247;SDS011;4164;49.844;8.830;2022-11-04T10:39:38;4.80;;;1.20;;
8247;SDS011;4164;49.844;8.830;2022-11-04T10:42:09;8.43;;;1.50;;
8247;SDS011;4164;49.844;8.830;2022-11-04T10:44:37;3.77;;;1.30;;
8247;SDS011;4164;49.844;8.830;2022-11-04T10:47:06;5.13;;;1.70;;
8247;SDS011;4164;49.844;8.830;2022-11-04T10:49:48;2.37;;;1.13;;
8247;SDS011;4164;49.844;8.830;2022-11-04T10:52:35;5.70;;;1.40;;
8247;SDS011;4164;49.844;8.830;2022-11-04T10:55:02;3.30;;;1.20;;
8247;SDS011;4164;49.844;8.830;2022-11-04T10:57:28;7.47;;;1.60;;
8247;SDS011;4164;49.844;8.830;2022-11-04T11:07:38;5.97;;;2.20;;
8247;SDS011;4164;49.844;8.830;2022-11-04T11:10:04;6.27;;;1.73;;
8247;SDS011;4164;49.844;8.830;2022-11-04T11:12:40;8.47;;;2.30;;
8247;SDS011;4164;49.844;8.830;2022-11-04T11:17:49;6.10;;;1.80;;
8247;SDS011;4164;49.844;8.830;2022-11-04T11:20:22;7.83;;;1.73;;
8247;SDS011;4164;49.844;8.830;2022-11-04T11:22:49;3.90;;;1.20;;
8247;SDS011;4164;49.844;8.830;2022-11-04T11:27:51;8.80;;;1.57;;
8247;SDS011;4164;49.844;8.830;2022-11-04T11:30:28;7.47;;;1.40;;
8247;SDS011;4164;49.844;8.830;2022-11-04T11:32:59;4.93;;;1.30;;
8247;SDS011;4164;49.844;8.830;2022-11-04T11:36:14;7.30;;;1.70;;
8247;SDS011;4164;49.844;8.830;2022-11-04T11:38:22;5.93;;;1.50;;
8247;SDS011;4164;49.844;8.830;2022-11-04T11:40:50;6.77;;;1.43;;
8247;SDS011;4164;49.844;8.830;2022-11-04T11:43:25;6.90;;;2.20;;
8247;SDS011;4164;49.844;8.830;2022-11-04T11:45:54;3.80;;;1.40;;
8247;SDS011;4164;49.844;8.830;2022-11-04T11:51:16;7.87;;;1.80;;
8247;SDS011;4164;49.844;8.830;2022-11-04T11:56:35;5.17;;;1.47;;
8247;SDS011;4164;49.844;8.830;2022-11-04T11:59:12;3.50;;;1.50;;
8247;SDS011;4164;49.844;8.830;2022-11-04T12:02:19;3.57;;;1.40;;
8247;SDS011;4164;49.844;8.830;2022-11-04T12:04:56;5.47;;;1.47;;
8247;SDS011;4164;49.844;8.830;2022-11-04T12:07:25;6.67;;;1.50;;
8247;SDS011;4164;49.844;8.830;2022-11-04T12:10:10;3.97;;;1.40;;
8247;SDS011;4164;49.844;8.830;2022-11-04T12:13:04;7.10;;;1.50;;
8247;SDS011;4164;49.844;8.830;2022-11-04T12:21:37;3.73;;;1.50;;
8247;SDS011;4164;49.844;8.830;2022-11-04T12:27:07;6.03;;;1.30;;
8247;SDS011;4164;49.844;8.830;2022-11-04T12:29:51;3.30;;;1.63;;
8247;SDS011;4164;49.844;8.830;2022-11-04T12:35:25;4.80;;;1.70;;
8247;SDS011;4164;49.844;8.830;2022-11-04T12:38:24;2.23;;;1.33;;
8247;SDS011;4164;49.844;8.830;2022-11-04T12:43:57;4.70;;;1.63;;
8247;SDS011;4164;49.844;8.830;2022-11-04T12:46:36;5.30;;;2.00;;
8247;SDS011;4164;49.844;8.830;2022-11-04T12:49:22;8.53;;;1.80;;
8247;SDS011;4164;49.844;8.830;2022-11-04T12:54:36;6.90;;;2.70;;
8247;SDS011;4164;49.844;8.830;2022-11-04T12:57:40;5.20;;;2.40;;
8247;SDS011;4164;49.844;8.830;2022-11-04T13:00:16;3.37;;;1.97;;
8247;SDS011;4164;49.844;8.830;2022-11-04T13:02:49;7.73;;;2.70;;
8247;SDS011;4164;49.844;8.830;2022-11-04T13:10:51;7.50;;;1.70;;
8247;SDS011;4164;49.844;8.830;2022-11-04T13:13:46;5.70;;;1.90;;
8247;SDS011;4164;49.844;8.830;2022-11-04T13:16:16;8.13;;;1.70;;
8247;SDS011;4164;49.844;8.830;2022-11-04T13:18:42;6.00;;;2.17;;
8247;SDS011;4164;49.844;8.830;2022-11-04T13:21:15;3.00;;;1.30;;
8247;SDS011;4164;49.844;8.830;2022-11-04T13:26:15;7.83;;;2.30;;
8247;SDS011;4164;49.844;8.830;2022-11-04T13:28:43;3.80;;;1.40;;
8247;SDS011;4164;49.844;8.830;2022-11-04T13:31:38;3.40;;;2.00;;
8247;SDS011;4164;49.844;8.830;2022-11-04T13:37:01;5.53;;;1.57;;
8247;SDS011;4164;49.844;8.830;2022-11-04T13:39:44;3.40;;;1.73;;
8247;SDS011;4164;49.844;8.830;2022-11-04T13:45:15;6.63;;;2.80;;
8247;SDS011;4164;49.844;8.830;2022-11-04T13:50:31;10.07;;;3.17;;
8247;SDS011;4164;49.844;8.830;2022-11-04T13:52:59;14.80;;;6.60;;
8247;SDS011;4164;49.844;8.830;2022-11-04T13:55:26;16.03;;;5.83;;
8247;SDS011;4164;49.844;8.830;2022-11-04T13:57:55;15.13;;;5.33;;
8247;SDS011;4164;49.844;8.830;2022-11-04T14:00:24;27.83;;;13.30;;
8247;SDS011;4164;49.844;8.830;2022-11-04T14:08:30;5.80;;;2.37;;
8247;SDS011;4164;49.844;8.830;2022-11-04T14:11:00;7.13;;;3.57;;
8247;SDS011;4164;49.844;8.830;2022-11-04T14:18:34;6.50;;;3.50;;
8247;SDS011;4164;49.844;8.830;2022-11-04T14:23:35;7.60;;;3.50;;
8247;SDS011;4164;49.844;8.830;2022-11-04T14:26:02;9.83;;;4.30;;
8247;SDS011;4164;49.844;8.830;2022-11-04T14:28:30;7.43;;;2.73;;
8247;SDS011;4164;49.844;8.830;2022-11-04T14:31:44;9.33;;;4.93;;
8247;SDS011;4164;49.844;8.830;2022-11-04T14:33:59;5.07;;;2.47;;
8247;SDS011;4164;49.844;8.830;2022-11-04T14:36:29;7.70;;;2.03;;
8247;SDS011;4164;49.844;8.830;2022-11-04T14:44:18;5.53;;;1.93;;
8247;SDS011;4164;49.844;8.830;2022-11-04T14:47:06;6.20;;;1.73;;
8247;SDS011;4164;49.844;8.830;2022-11-04T14:49:45;2.37;;;1.70;;
8247;SDS011;4164;49.844;8.830;2022-11-04T14:52:13;3.07;;;2.17;;
8247;SDS011;4164;49.844;8.830;2022-11-04T14:54:44;4.03;;;1.97;;
8247;SDS011;4164;49.844;8.830;2022-11-04T14:57:15;6.40;;;2.00;;
8247;SDS011;4164;49.844;8.830;2022-11-04T14:59:43;7.57;;;1.80;;
8247;SDS011;4164;49.844;8.830;2022-11-04T15:02:10;5.33;;;2.00;;
8247;SDS011;4164;49.844;8.830;2022-11-04T15:04:44;4.10;;;2.30;;
8247;SDS011;4164;49.844;8.830;2022-11-04T15:07:35;12.57;;;6.10;;
8247;SDS011;4164;49.844;8.830;2022-11-04T15:10:02;7.97;;;3.13;;
8247;SDS011;4164;49.844;8.830;2022-11-04T15:12:45;5.13;;;2.77;;
8247;SDS011;4164;49.844;8.830;2022-11-04T15:15:29;5.60;;;2.43;;
8247;SDS011;4164;49.844;8.830;2022-11-04T15:18:13;5.40;;;2.20;;
8247;SDS011;4164;49.844;8.830;2022-11-04T15:20:48;3.97;;;2.10;;
8247;SDS011;4164;49.844;8.830;2022-11-04T15:23:28;2.67;;;1.90;;
8247;SDS011;4164;49.844;8.830;2022-11-04T15:25:55;6.73;;;2.57;;
8247;SDS011;4164;49.844;8.830;2022-11-04T15:28:26;3.80;;;2.40;;
8247;SDS011;4164;49.844;8.830;2022-11-04T15:30:57;6.43;;;2.57;;
8247;SDS011;4164;49.844;8.830;2022-11-04T15:33:23;6.33;;;2.67;;
8247;SDS011;4164;49.844;8.830;2022-11-04T15:35:51;5.50;;;2.70;;
8247;SDS011;4164;49.844;8.830;2022-11-04T15:38:17;8.23;;;2.67;;
8247;SDS011;4164;49.844;8.830;2022-11-04T15:40:43;10.63;;;2.93;;
8247;SDS011;4164;49.844;8.830;2022-11-04T15:43:09;8.70;;;2.40;;
8247;SDS011;4164;49.844;8.830;2022-11-04T15:53:57;6.27;;;3.77;;
8247;SDS011;4164;49.844;8.830;2022-11-04T15:56:27;9.27;;;4.10;;
8247;SDS011;4164;49.844;8.830;2022-11-04T15:58:55;9.20;;;4.10;;
8247;SDS011;4164;49.844;8.830;2022-11-04T16:01:22;14.37;;;4.37;;
8247;SDS011;4164;49.844;8.830;2022-11-04T16:03:49;10.73;;;5.73;;
8247;SDS011;4164;49.844;8.830;2022-11-04T16:06:16;10.13;;;5.17;;
8247;SDS011;4164;49.844;8.830;2022-11-04T16:09:14;7.53;;;5.50;;
8247;SDS011;4164;49.844;8.830;2022-11-04T16:12:03;13.67;;;5.40;;
8247;SDS011;4164;49.844;8.830;2022-11-04T16:14:46;9.87;;;4.87;;
8247;SDS011;4164;49.844;8.830;2022-11-04T16:17:16;9.13;;;4.90;;
8247;SDS011;4164;49.844;8.830;2022-11-04T16:19:46;9.00;;;5.47;;
8247;SDS011;4164;49.844;8.830;2022-11-04T16:22:16;12.03;;;6.13;;
8247;SDS011;4164;49.844;8.830;2022-11-04T16:24:46;12.53;;;6.57;;
8247;SDS011;4164;49.844;8.830;2022-11-04T16:27:15;10.80;;;6.43;;
8247;SDS011;4164;49.844;8.830;2022-11-04T16:29:49;8.60;;;4.97;;
8247;SDS011;4164;49.844;8.830;2022-11-04T16:32:18;9.53;;;5.30;;
8247;SDS011;4164;49.844;8.830;2022-11-04T16:34:48;8.23;;;4.83;;
8247;SDS011;4164;49.844;8.830;2022-11-04T16:37:15;14.83;;;6.17;;
8247;SDS011;4164;49.844;8.830;2022-11-04T16:39:42;8.53;;;5.27;;
8247;SDS011;4164;49.844;8.830;2022-11-04T16:42:10;9.27;;;4.97;;
8247;SDS011;4164;49.844;8.830;2022-11-04T16:44:37;10.50;;;5.57;;
8247;SDS011;4164;49.844;8.830;2022-11-04T16:47:03;13.43;;;6.73;;
8247;SDS011;4164;49.844;8.830;2022-11-04T16:49:29;9.73;;;4.83;;
8247;SDS011;4164;49.844;8.830;2022-11-04T16:51:55;10.80;;;5.23;;
8247;SDS011;4164;49.844;8.830;2022-11-04T16:54:25;22.80;;;10.90;;
8247;SDS011;4164;49.844;8.830;2022-11-04T16:56:52;28.93;;;16.00;;
8247;SDS011;4164;49.844;8.830;2022-11-04T16:59:18;28.40;;;14.80;;
8247;SDS011;4164;49.844;8.830;2022-11-04T17:01:44;20.70;;;9.73;;
8247;SDS011;4164;49.844;8.830;2022-11-04T17:04:10;10.57;;;6.87;;
8247;SDS011;4164;49.844;8.830;2022-11-04T17:06:36;8.27;;;5.90;;
8247;SDS011;4164;49.844;8.830;2022-11-04T17:09:02;13.63;;;7.10;;
8247;SDS011;4164;49.844;8.830;2022-11-04T17:11:31;74.43;;;29.70;;
8247;SDS011;4164;49.844;8.830;2022-11-04T17:13:56;22.87;;;11.87;;
8247;SDS011;4164;49.844;8.830;2022-11-04T17:16:22;25.13;;;12.47;;
8247;SDS011;4164;49.844;8.830;2022-11-04T17:18:48;16.57;;;9.37;;
8247;SDS011;4164;49.844;8.830;2022-11-04T17:21:14;17.83;;;9.77;;
8247;SDS011;4164;49.844;8.830;2022-11-04T17:23:42;21.07;;;10.17;;
8247;SDS011;4164;49.844;8.830;2022-11-04T17:26:08;38.30;;;21.47;;
8247;SDS011;4164;49.844;8.830;2022-11-04T17:28:35;22.63;;;13.63;;
8247;SDS011;4164;49.844;8.830;2022-11-04T17:31:01;17.07;;;11.47;;
8247;SDS011;4164;49.844;8.830;2022-11-04T17:33:27;26.20;;;13.50;;
8247;SDS011;4164;49.844;8.830;2022-11-04T17:35:52;16.10;;;7.60;;
8247;SDS011;4164;49.844;8.830;2022-11-04T17:38:18;11.97;;;4.40;;
8247;SDS011;4164;49.844;8.830;2022-11-04T17:40:44;11.53;;;5.73;;